createdAt,value
2017-04-16T00:00:25.508Z,9.38
2017-04-16T00:01:31.441Z,9.75
2017-04-16T00:02:37.372Z,9.37
2017-04-16T00:03:43.213Z,7.53
2017-04-16T00:04:49.092Z,10.95
2017-04-16T00:05:55.032Z,13.35
2017-04-16T00:07:01.195Z,5.62
2017-04-16T00:08:07.100Z,7.48
2017-04-16T00:09:13.033Z,8.05
2017-04-16T00:10:19.146Z,11.52
2017-04-16T00:11:24.965Z,6.85
2017-04-16T00:12:30.940Z,14.33
2017-04-16T00:13:37.061Z,11.83
2017-04-16T00:14:43.136Z,10.73
2017-04-16T00:15:49.003Z,11.22
2017-04-16T00:16:55.039Z,10.60
2017-04-16T00:18:01.670Z,7.62
2017-04-16T00:19:07.416Z,12.78
2017-04-16T00:20:13.373Z,9.42
2017-04-16T00:21:19.162Z,8.47
2017-04-16T00:22:25.061Z,7.95
2017-04-16T00:23:31.034Z,7.85
2017-04-16T00:24:36.968Z,2.82
2017-04-16T00:25:42.736Z,5.95
2017-04-16T00:26:48.961Z,9.52
2017-04-16T00:27:54.528Z,7.18
2017-04-16T00:29:01.550Z,6.55
2017-04-16T00:30:07.407Z,7.52
2017-04-16T00:31:13.964Z,3.98
2017-04-16T00:32:19.972Z,4.25
2017-04-16T00:33:26.344Z,6.22
2017-04-16T00:34:32.529Z,4.52
2017-04-16T00:35:38.288Z,4.58
2017-04-16T00:36:44.194Z,9.02
2017-04-16T00:37:49.972Z,4.67
2017-04-16T00:38:55.780Z,6.02
2017-04-16T00:40:01.812Z,11.00
2017-04-16T00:41:07.699Z,6.80
2017-04-16T00:42:14.037Z,2.00
2017-04-16T00:43:20.090Z,3.40
2017-04-16T00:44:26.136Z,7.45
2017-04-16T00:45:31.926Z,9.83
2017-04-16T00:46:37.821Z,11.97
2017-04-16T00:47:43.916Z,4.27
2017-04-16T00:48:49.783Z,1.67
2017-04-16T00:49:55.557Z,4.90
2017-04-16T00:51:01.676Z,3.43
2017-04-16T00:52:07.675Z,3.55
2017-04-16T00:53:13.413Z,5.77
2017-04-16T00:54:19.199Z,10.25
2017-04-16T00:55:25.067Z,2.22
2017-04-16T00:56:30.944Z,12.55
2017-04-16T00:57:36.959Z,6.53
2017-04-16T00:58:42.864Z,5.70
2017-04-16T00:59:49.425Z,5.85
2017-04-16T01:01:00.804Z,8.53
2017-04-16T01:02:41.664Z,2.48
2017-04-16T01:03:47.516Z,3.95
2017-04-16T01:04:53.324Z,2.45
2017-04-16T01:05:59.457Z,4.52
2017-04-16T01:07:05.449Z,10.67
2017-04-16T01:08:11.324Z,4.58
2017-04-16T01:09:17.207Z,4.45
2017-04-16T01:10:22.988Z,8.47
2017-04-16T01:11:29.484Z,7.95
2017-04-16T01:12:35.744Z,7.87
2017-04-16T01:13:41.787Z,10.55
2017-04-16T01:14:48.014Z,6.83
2017-04-16T01:15:53.709Z,2.93
2017-04-16T01:16:59.504Z,2.70
2017-04-16T01:18:05.356Z,4.98
2017-04-16T01:19:11.293Z,2.58
2017-04-16T01:20:17.096Z,6.95
2017-04-16T01:21:23.001Z,7.15
2017-04-16T01:22:28.909Z,9.65
2017-04-16T01:23:34.940Z,5.02
2017-04-16T01:24:40.884Z,11.80
2017-04-16T01:25:47.509Z,1.65
2017-04-16T01:26:53.252Z,2.22
2017-04-16T01:27:59.124Z,4.53
2017-04-16T01:29:05.228Z,2.62
2017-04-16T01:30:11.264Z,5.72
2017-04-16T01:31:17.862Z,3.10
2017-04-16T01:32:23.884Z,6.88
2017-04-16T01:33:30.382Z,4.37
2017-04-16T01:34:37.047Z,5.18
2017-04-16T01:35:42.879Z,3.55
2017-04-16T01:36:49.145Z,6.05
2017-04-16T01:37:54.971Z,9.47
2017-04-16T01:39:00.932Z,5.90
2017-04-16T01:40:06.887Z,8.12
2017-04-16T01:41:12.966Z,1.47
2017-04-16T01:42:19.134Z,1.87
2017-04-16T01:43:25.144Z,3.43
2017-04-16T01:44:31.080Z,3.40
2017-04-16T01:45:36.875Z,3.12
2017-04-16T01:46:42.902Z,10.02
2017-04-16T01:47:48.728Z,7.52
2017-04-16T01:48:54.667Z,3.17
2017-04-16T01:50:00.661Z,7.87
2017-04-16T01:51:06.600Z,1.78
2017-04-16T01:52:12.412Z,2.67
2017-04-16T01:53:18.460Z,7.48
2017-04-16T01:54:24.401Z,10.02
2017-04-16T01:55:30.288Z,2.83
2017-04-16T01:56:36.201Z,5.80
2017-04-16T01:57:42.565Z,2.45
2017-04-16T01:58:48.317Z,3.72
2017-04-16T01:59:54.792Z,2.62
2017-04-16T02:01:00.535Z,3.38
2017-04-16T02:02:06.524Z,3.25
2017-04-16T02:03:12.540Z,3.12
2017-04-16T02:04:18.285Z,3.95
2017-04-16T02:05:24.247Z,5.88
2017-04-16T02:06:30.039Z,1.32
2017-04-16T02:07:36.696Z,4.58
2017-04-16T02:08:42.909Z,2.33
2017-04-16T02:09:48.819Z,5.08
2017-04-16T02:10:54.560Z,7.52
2017-04-16T02:12:00.371Z,3.55
2017-04-16T02:13:06.465Z,3.08
2017-04-16T02:14:13.109Z,0.70
2017-04-16T02:16:56.664Z,5.02
2017-04-16T02:18:02.472Z,1.52
2017-04-16T02:19:08.557Z,2.40
2017-04-16T02:20:14.522Z,4.38
2017-04-16T02:21:20.344Z,4.57
2017-04-16T02:22:26.347Z,1.25
2017-04-16T02:23:32.191Z,2.52
2017-04-16T02:24:38.076Z,4.05
2017-04-16T02:25:44.120Z,5.77
2017-04-16T02:26:50.085Z,3.57
2017-04-16T02:27:55.972Z,2.87
2017-04-16T02:29:01.949Z,2.60
2017-04-16T02:30:07.922Z,3.08
2017-04-16T02:31:13.997Z,3.25
2017-04-16T02:32:19.988Z,4.17
2017-04-16T02:33:25.973Z,8.78
2017-04-16T02:34:32.180Z,2.52
2017-04-16T02:35:37.970Z,2.97
2017-04-16T02:36:44.253Z,4.45
2017-04-16T02:37:50.068Z,4.77
2017-04-16T02:38:56.097Z,6.62
2017-04-16T02:40:01.889Z,3.62
2017-04-16T02:41:07.618Z,3.47
2017-04-16T02:42:13.748Z,1.95
2017-04-16T02:43:19.565Z,6.10
2017-04-16T02:44:25.489Z,3.02
2017-04-16T02:45:31.492Z,1.93
2017-04-16T02:46:38.117Z,4.70
2017-04-16T02:47:44.737Z,3.65
2017-04-16T02:48:50.792Z,4.88
2017-04-16T02:49:56.669Z,5.38
2017-04-16T02:51:02.620Z,5.05
2017-04-16T02:52:08.432Z,2.97
2017-04-16T02:53:14.660Z,2.65
2017-04-16T02:54:20.465Z,1.93
2017-04-16T02:55:26.596Z,4.78
2017-04-16T02:56:32.492Z,2.33
2017-04-16T02:57:38.417Z,3.27
2017-04-16T02:58:44.540Z,2.17
2017-04-16T02:59:50.424Z,2.78
2017-04-16T03:00:56.206Z,2.30
2017-04-16T03:02:02.201Z,4.33
2017-04-16T03:03:08.039Z,8.17
2017-04-16T03:04:14.134Z,6.40
2017-04-16T03:05:20.221Z,4.05
2017-04-16T03:06:26.201Z,2.10
2017-04-16T03:07:32.124Z,5.52
2017-04-16T03:08:38.096Z,5.08
2017-04-16T03:09:44.861Z,1.97
2017-04-16T03:10:50.579Z,1.98
2017-04-16T03:11:56.661Z,4.07
2017-04-16T03:13:03.354Z,1.63
2017-04-16T03:14:09.328Z,6.82
2017-04-16T03:15:15.916Z,3.43
2017-04-16T03:16:21.791Z,3.45
2017-04-16T03:17:27.892Z,3.82
2017-04-16T03:18:33.639Z,1.62
2017-04-16T03:19:39.861Z,1.40
2017-04-16T03:20:45.892Z,0.63
2017-04-16T03:21:51.959Z,2.45
2017-04-16T03:22:58.026Z,5.42
2017-04-16T03:24:04.190Z,4.32
2017-04-16T03:25:10.037Z,2.03
2017-04-16T03:26:16.149Z,4.75
2017-04-16T03:27:22.105Z,6.50
2017-04-16T03:28:27.882Z,6.33
2017-04-16T03:29:33.635Z,1.22
2017-04-16T03:30:39.774Z,1.63
2017-04-16T03:31:46.151Z,2.78
2017-04-16T03:32:52.096Z,4.43
2017-04-16T03:33:58.332Z,1.88
2017-04-16T03:35:04.168Z,6.03
2017-04-16T03:36:10.296Z,3.55
2017-04-16T03:37:16.266Z,2.58
2017-04-16T03:38:22.396Z,1.38
2017-04-16T03:39:28.525Z,2.58
2017-04-16T03:40:34.811Z,1.55
2017-04-16T03:41:40.732Z,2.15
2017-04-16T03:42:46.744Z,9.98
2017-04-16T03:43:53.671Z,1.18
2017-04-16T03:45:00.084Z,2.20
2017-04-16T03:46:05.956Z,1.23
2017-04-16T03:47:12.004Z,2.88
2017-04-16T03:48:18.148Z,2.15
2017-04-16T03:49:24.855Z,3.43
2017-04-16T03:50:30.716Z,2.55
2017-04-16T03:51:36.829Z,3.68
2017-04-16T03:52:42.744Z,2.48
2017-04-16T03:53:48.795Z,2.08
2017-04-16T03:54:54.905Z,1.38
2017-04-16T03:56:00.868Z,4.65
2017-04-16T03:57:06.821Z,2.17
2017-04-16T03:58:12.706Z,1.75
2017-04-16T03:59:18.645Z,1.43
2017-04-16T04:00:25.354Z,1.27
2017-04-16T04:01:31.303Z,1.78
2017-04-16T04:02:37.910Z,3.13
2017-04-16T04:03:43.838Z,4.53
2017-04-16T04:04:49.840Z,1.62
2017-04-16T04:07:31.303Z,3.60
2017-04-16T04:08:41.448Z,3.12
2017-04-16T04:09:47.597Z,5.23
2017-04-16T04:10:53.467Z,3.67
2017-04-16T04:11:59.618Z,1.33
2017-04-16T04:13:05.475Z,2.67
2017-04-16T04:14:11.373Z,3.82
2017-04-16T04:17:09.776Z,2.82
2017-04-16T04:19:50.953Z,4.08
2017-04-16T04:20:56.728Z,4.00
2017-04-16T04:22:03.377Z,1.42
2017-04-16T04:23:09.879Z,2.13
2017-04-16T04:24:15.967Z,3.98
2017-04-16T04:25:21.708Z,1.72
2017-04-16T04:26:27.734Z,6.43
2017-04-16T04:27:33.579Z,2.68
2017-04-16T04:28:40.162Z,2.03
2017-04-16T04:29:46.231Z,2.93
2017-04-16T04:30:52.711Z,4.52
2017-04-16T04:33:32.866Z,3.12
2017-04-16T04:34:38.862Z,2.58
2017-04-16T04:35:44.604Z,1.95
2017-04-16T04:36:50.632Z,2.10
2017-04-16T04:37:56.680Z,2.77
2017-04-16T04:39:02.747Z,3.07
2017-04-16T04:41:43.527Z,4.25
2017-04-16T04:44:24.004Z,2.62
2017-04-16T04:48:55.096Z,3.77
2017-04-16T04:50:00.855Z,5.85
2017-04-16T04:51:06.620Z,2.07
2017-04-16T04:52:13.233Z,2.48
2017-04-16T04:53:19.180Z,3.28
2017-04-16T04:54:25.296Z,2.62
2017-04-16T04:55:31.177Z,3.58
2017-04-16T04:56:37.148Z,3.32
2017-04-16T04:57:43.159Z,3.02
2017-04-16T04:58:48.861Z,2.95
2017-04-16T04:59:54.876Z,3.05
2017-04-16T05:01:00.864Z,2.77
2017-04-16T05:02:06.711Z,2.88
2017-04-16T05:03:12.653Z,4.20
2017-04-16T05:04:18.664Z,3.33
2017-04-16T05:05:24.940Z,2.98
2017-04-16T05:06:30.696Z,2.62
2017-04-16T05:07:36.711Z,3.03
2017-04-16T05:08:42.623Z,4.65
2017-04-16T05:09:48.492Z,2.43
2017-04-16T05:10:55.268Z,2.83
2017-04-16T05:12:01.255Z,3.65
2017-04-16T05:13:07.232Z,3.12
2017-04-16T05:14:13.801Z,5.35
2017-04-16T05:15:19.885Z,2.92
2017-04-16T05:16:26.120Z,5.18
2017-04-16T05:17:32.218Z,3.68
2017-04-16T05:18:38.185Z,3.45
2017-04-16T05:19:44.040Z,3.93
2017-04-16T05:20:49.961Z,4.18
2017-04-16T05:21:55.944Z,3.58
2017-04-16T05:23:01.813Z,3.95
2017-04-16T05:24:07.808Z,5.73
2017-04-16T05:25:13.944Z,4.25
2017-04-16T05:26:19.784Z,6.22
2017-04-16T05:27:25.700Z,3.62
2017-04-16T05:28:31.725Z,4.95
2017-04-16T05:29:37.497Z,4.83
2017-04-16T05:30:43.266Z,4.52
2017-04-16T05:31:49.201Z,5.72
2017-04-16T05:32:54.955Z,3.87
2017-04-16T05:34:00.940Z,4.30
2017-04-16T05:35:06.764Z,3.27
2017-04-16T05:36:12.518Z,4.42
2017-04-16T05:37:18.587Z,5.08
2017-04-16T05:38:24.635Z,3.92
2017-04-16T05:39:30.680Z,4.95
2017-04-16T05:40:36.989Z,4.18
2017-04-16T05:41:42.861Z,3.38
2017-04-16T05:42:48.630Z,4.88
2017-04-16T05:43:54.468Z,4.87
2017-04-16T05:45:00.256Z,9.18
2017-04-16T05:46:06.519Z,4.37
2017-04-16T05:47:13.332Z,3.93
2017-04-16T05:48:19.141Z,5.00
2017-04-16T05:49:25.219Z,4.65
2017-04-16T05:50:31.060Z,4.52
2017-04-16T05:51:37.072Z,3.95
2017-04-16T05:52:42.946Z,7.85
2017-04-16T05:53:48.738Z,4.70
2017-04-16T05:54:54.716Z,5.50
2017-04-16T05:56:00.755Z,4.87
2017-04-16T05:57:06.796Z,6.08
2017-04-16T05:58:12.837Z,5.13
2017-04-16T05:59:18.585Z,5.33
2017-04-16T06:00:24.934Z,4.68
2017-04-16T06:01:31.132Z,5.05
2017-04-16T06:02:37.683Z,4.53
2017-04-16T06:03:43.562Z,4.75
2017-04-16T06:08:06.275Z,5.97
2017-04-16T06:09:12.108Z,3.78
2017-04-16T06:10:18.836Z,4.80
2017-04-16T06:11:24.984Z,6.05
2017-04-16T06:12:30.909Z,5.38
2017-04-16T06:13:37.038Z,6.18
2017-04-16T06:14:43.067Z,6.00
2017-04-16T06:15:49.349Z,5.57
2017-04-16T06:16:55.784Z,5.53
2017-04-16T06:18:01.611Z,4.03
2017-04-16T06:19:08.129Z,5.92
2017-04-16T06:20:14.728Z,5.15
2017-04-16T06:21:21.048Z,9.10
2017-04-16T06:22:27.051Z,5.07
2017-04-16T06:23:33.012Z,5.05
2017-04-16T06:24:39.799Z,4.95
2017-04-16T06:25:45.776Z,5.17
2017-04-16T06:26:52.032Z,5.92
2017-04-16T06:27:57.986Z,4.97
2017-04-16T06:29:03.864Z,4.77
2017-04-16T06:30:09.800Z,5.57
2017-04-16T06:31:15.556Z,3.80
2017-04-16T06:32:22.277Z,4.52
2017-04-16T06:33:28.173Z,5.37
2017-04-16T06:34:34.090Z,6.03
2017-04-16T06:35:40.636Z,5.30
2017-04-16T06:36:46.372Z,4.50
2017-04-16T06:37:52.252Z,4.58
2017-04-16T06:38:57.985Z,4.33
2017-04-16T06:40:03.866Z,4.50
2017-04-16T06:41:10.464Z,3.07
2017-04-16T06:42:16.172Z,4.75
2017-04-16T06:43:21.980Z,4.25
2017-04-16T06:44:27.910Z,5.42
2017-04-16T06:45:33.951Z,4.25
2017-04-16T06:46:40.601Z,4.70
2017-04-16T06:47:46.380Z,5.02
2017-04-16T06:48:52.476Z,5.73
2017-04-16T06:49:58.311Z,4.17
2017-04-16T06:51:04.121Z,10.90
2017-04-16T06:52:10.409Z,4.77
2017-04-16T06:53:16.352Z,5.17
2017-04-16T06:54:22.322Z,4.65
2017-04-16T06:55:29.236Z,4.85
2017-04-16T06:56:35.309Z,4.22
2017-04-16T06:57:41.138Z,4.20
2017-04-16T06:58:47.884Z,4.42
2017-04-16T06:59:55.004Z,5.12
2017-04-16T07:01:00.945Z,4.40
2017-04-16T07:02:06.753Z,4.58
2017-04-16T07:03:12.989Z,4.98
2017-04-16T07:04:18.824Z,5.67
2017-04-16T07:05:24.913Z,2.38
2017-04-16T07:06:30.744Z,2.68
2017-04-16T07:07:36.573Z,1.83
2017-04-16T07:08:42.357Z,1.52
2017-04-16T07:09:49.039Z,1.45
2017-04-16T07:10:55.108Z,1.08
2017-04-16T07:12:01.085Z,1.47
2017-04-16T07:13:06.854Z,1.87
2017-04-16T07:14:12.954Z,1.65
2017-04-16T07:15:18.917Z,2.08
2017-04-16T07:16:24.861Z,1.47
2017-04-16T07:17:30.807Z,2.18
2017-04-16T07:18:36.882Z,1.80
2017-04-16T07:19:42.905Z,2.22
2017-04-16T07:20:49.083Z,1.17
2017-04-16T07:21:55.019Z,1.05
2017-04-16T07:23:01.002Z,1.85
2017-04-16T07:24:06.934Z,1.47
2017-04-16T07:25:12.944Z,1.12
2017-04-16T07:26:18.936Z,1.35
2017-04-16T07:27:24.915Z,1.45
2017-04-16T07:28:30.768Z,1.47
2017-04-16T07:29:36.783Z,1.02
2017-04-16T07:30:42.956Z,0.90
2017-04-16T07:31:48.728Z,0.77
2017-04-16T07:32:54.460Z,0.80
2017-04-16T07:34:00.332Z,0.80
2017-04-16T07:35:06.235Z,1.02
2017-04-16T07:36:12.172Z,0.87
2017-04-16T07:37:18.004Z,0.65
2017-04-16T07:38:23.873Z,0.78
2017-04-16T07:39:29.900Z,1.07
2017-04-16T07:40:35.921Z,0.50
2017-04-16T07:41:41.881Z,1.27
2017-04-16T07:42:47.777Z,0.72
2017-04-16T07:43:53.749Z,0.50
2017-04-16T07:44:59.690Z,0.50
2017-04-16T07:46:05.517Z,0.67
2017-04-16T07:47:11.540Z,1.27
2017-04-16T07:48:17.467Z,0.78
2017-04-16T07:49:23.325Z,0.80
2017-04-16T07:50:29.112Z,0.60
2017-04-16T07:51:34.968Z,0.50
2017-04-16T07:52:41.150Z,0.48
2017-04-16T07:53:47.037Z,0.67
2017-04-16T07:54:52.822Z,0.60
2017-04-16T07:55:58.692Z,2.02
2017-04-16T07:57:05.185Z,0.82
2017-04-16T07:58:11.169Z,0.63
2017-04-16T07:59:17.229Z,0.97
2017-04-16T08:00:23.246Z,0.97
2017-04-16T08:01:29.790Z,0.77
2017-04-16T08:02:35.742Z,1.48
2017-04-16T08:03:41.941Z,0.77
2017-04-16T08:04:47.836Z,0.80
2017-04-16T08:05:53.832Z,0.88
2017-04-16T08:06:59.637Z,0.75
2017-04-16T08:08:05.476Z,0.95
2017-04-16T08:09:11.580Z,1.88
2017-04-16T08:10:17.335Z,0.93
2017-04-16T08:11:23.376Z,0.83
2017-04-16T08:12:29.953Z,1.20
2017-04-16T08:13:35.911Z,2.42
2017-04-16T08:14:41.657Z,0.77
2017-04-16T08:15:47.516Z,0.73
2017-04-16T08:16:53.477Z,0.90
2017-04-16T08:17:59.441Z,0.83
2017-04-16T08:19:05.258Z,1.20
2017-04-16T08:20:11.384Z,0.92
2017-04-16T08:21:17.156Z,0.70
2017-04-16T08:22:23.056Z,0.82
2017-04-16T08:23:29.056Z,0.85
2017-04-16T08:24:34.966Z,0.97
2017-04-16T08:25:41.269Z,0.95
2017-04-16T08:26:47.237Z,0.85
2017-04-16T08:27:53.281Z,0.72
2017-04-16T08:28:59.295Z,1.20
2017-04-16T08:30:05.413Z,0.82
2017-04-16T08:31:11.249Z,0.82
2017-04-16T08:32:17.088Z,0.92
2017-04-16T08:33:22.921Z,0.83
2017-04-16T08:34:28.771Z,0.88
2017-04-16T08:35:35.344Z,0.72
2017-04-16T08:36:41.329Z,0.82
2017-04-16T08:37:47.126Z,0.73
2017-04-16T08:38:52.877Z,0.93
2017-04-16T08:39:58.711Z,0.98
2017-04-16T08:41:05.265Z,0.87
2017-04-16T08:42:11.163Z,1.05
2017-04-16T08:43:17.031Z,0.70
2017-04-16T08:44:23.636Z,0.78
2017-04-16T08:45:29.659Z,0.85
2017-04-16T08:46:35.574Z,1.12
2017-04-16T08:47:41.587Z,0.87
2017-04-16T08:48:47.584Z,0.65
2017-04-16T08:49:53.733Z,0.78
2017-04-16T08:50:59.706Z,0.73
2017-04-16T08:52:05.606Z,0.98
2017-04-16T08:53:12.575Z,0.70
2017-04-16T08:54:18.602Z,1.60
2017-04-16T08:55:24.448Z,0.68
2017-04-16T08:56:31.081Z,0.70
2017-04-16T08:57:36.833Z,0.62
2017-04-16T08:58:42.719Z,1.10
2017-04-16T08:59:48.496Z,0.90
2017-04-16T09:00:54.266Z,0.90
2017-04-16T09:02:00.401Z,0.85
2017-04-16T09:03:06.328Z,0.93
2017-04-16T09:04:12.857Z,1.38
2017-04-16T09:05:18.797Z,0.73
2017-04-16T09:06:24.586Z,1.55
2017-04-16T09:07:30.401Z,0.95
2017-04-16T09:08:36.440Z,2.33
2017-04-16T09:09:42.377Z,0.80
2017-04-16T09:10:48.369Z,1.28
2017-04-16T09:11:54.932Z,1.58
2017-04-16T09:13:00.956Z,0.58
2017-04-16T09:14:06.913Z,1.12
2017-04-16T09:15:13.120Z,0.97
2017-04-16T09:16:19.856Z,0.77
2017-04-16T09:17:25.906Z,0.90
2017-04-16T09:18:31.802Z,2.83
2017-04-16T09:19:37.697Z,0.58
2017-04-16T09:20:43.708Z,3.08
2017-04-16T09:21:50.040Z,1.22
2017-04-16T09:22:55.896Z,1.43
2017-04-16T09:24:01.934Z,1.77
2017-04-16T09:25:07.732Z,1.23
2017-04-16T09:26:13.577Z,0.88
2017-04-16T09:27:19.509Z,0.70
2017-04-16T09:28:25.465Z,0.65
2017-04-16T09:29:31.274Z,2.67
2017-04-16T09:30:37.006Z,0.98
2017-04-16T09:31:43.236Z,0.70
2017-04-16T09:32:49.137Z,1.08
2017-04-16T09:33:55.090Z,2.42
2017-04-16T09:35:01.120Z,0.75
2017-04-16T09:36:07.561Z,0.70
2017-04-16T09:37:13.612Z,1.35
2017-04-16T09:38:19.580Z,0.68
2017-04-16T09:39:25.577Z,2.05
2017-04-16T09:40:31.328Z,0.87
2017-04-16T09:41:37.324Z,0.97
2017-04-16T09:42:43.510Z,1.15
2017-04-16T09:43:49.340Z,1.07
2017-04-16T09:44:55.296Z,1.40
2017-04-16T09:46:01.122Z,1.33
2017-04-16T09:47:06.920Z,0.63
2017-04-16T09:48:12.751Z,0.90
2017-04-16T09:49:18.506Z,2.27
2017-04-16T09:50:24.514Z,0.67
2017-04-16T09:51:30.527Z,1.32
2017-04-16T09:52:36.329Z,0.95
2017-04-16T09:53:42.398Z,1.00
2017-04-16T09:54:48.296Z,0.75
2017-04-16T09:55:54.084Z,0.90
2017-04-16T09:57:00.816Z,0.93
2017-04-16T09:58:06.716Z,1.13
2017-04-16T09:59:12.622Z,1.62
2017-04-16T10:00:18.677Z,1.60
2017-04-16T10:01:24.685Z,1.62
2017-04-16T10:02:30.577Z,2.07
2017-04-16T10:03:36.658Z,1.50
2017-04-16T10:04:42.797Z,2.05
2017-04-16T10:05:48.593Z,1.42
2017-04-16T10:06:55.092Z,1.18
2017-04-16T10:08:00.811Z,1.13
2017-04-16T10:09:06.608Z,1.57
2017-04-16T10:10:12.367Z,1.10
2017-04-16T10:11:19.069Z,4.37
2017-04-16T10:12:24.949Z,4.25
2017-04-16T10:13:30.781Z,2.62
2017-04-16T10:14:36.751Z,1.93
2017-04-16T10:15:42.561Z,2.42
2017-04-16T10:16:52.481Z,2.87
2017-04-16T10:17:58.539Z,1.83
2017-04-16T10:19:05.172Z,2.10
2017-04-16T10:20:16.434Z,1.52
2017-04-16T10:21:23.252Z,1.62
2017-04-16T10:22:29.920Z,1.33
2017-04-16T10:23:36.628Z,1.18
2017-04-16T10:24:42.689Z,1.17
2017-04-16T10:25:48.872Z,1.27
2017-04-16T10:26:56.460Z,1.12
2017-04-16T10:28:02.420Z,1.32
2017-04-16T10:29:10.102Z,1.68
2017-04-16T10:30:15.926Z,3.12
2017-04-16T10:31:21.684Z,1.60
2017-04-16T10:32:28.195Z,2.90
2017-04-16T10:33:34.005Z,1.58
2017-04-16T10:34:40.036Z,2.50
2017-04-16T10:35:45.800Z,2.05
2017-04-16T10:36:51.637Z,1.90
2017-04-16T10:37:57.716Z,1.57
2017-04-16T10:39:03.504Z,1.48
2017-04-16T10:40:09.443Z,4.67
2017-04-16T10:41:15.406Z,1.70
2017-04-16T10:42:21.116Z,1.27
2017-04-16T10:43:27.266Z,1.45
2017-04-16T10:44:33.115Z,2.57
2017-04-16T10:45:39.090Z,1.12
2017-04-16T10:46:45.117Z,1.35
2017-04-16T10:47:50.965Z,2.28
2017-04-16T10:48:56.809Z,2.17
2017-04-16T10:50:02.615Z,1.40
2017-04-16T10:51:08.448Z,2.77
2017-04-16T10:52:14.160Z,1.68
2017-04-16T10:53:20.257Z,1.60
2017-04-16T10:54:26.123Z,1.72
2017-04-16T10:55:31.932Z,2.35
2017-04-16T10:56:38.769Z,1.82
2017-04-16T10:57:44.657Z,1.42
2017-04-16T10:58:50.500Z,1.77
2017-04-16T10:59:57.331Z,1.92
2017-04-16T11:01:03.123Z,2.25
2017-04-16T11:02:08.965Z,1.55
2017-04-16T11:03:14.809Z,2.10
2017-04-16T11:04:20.836Z,1.98
2017-04-16T11:05:26.780Z,2.67
2017-04-16T11:06:32.632Z,1.83
2017-04-16T11:07:37.602Z,7.98
2017-04-16T11:08:43.437Z,2.85
2017-04-16T11:09:49.664Z,2.07
2017-04-16T11:10:55.836Z,3.53
2017-04-16T11:12:01.727Z,3.15
2017-04-16T11:13:07.535Z,4.08
2017-04-16T11:14:13.324Z,3.57
2017-04-16T11:15:19.132Z,1.55
2017-04-16T11:16:25.044Z,2.83
2017-04-16T11:17:31.589Z,4.02
2017-04-16T11:18:37.856Z,1.73
2017-04-16T11:19:43.731Z,2.15
2017-04-16T11:20:50.439Z,0.78
2017-04-16T11:21:56.434Z,2.50
2017-04-16T11:23:02.448Z,1.17
2017-04-16T11:24:08.434Z,0.70
2017-04-16T11:25:14.381Z,0.95
2017-04-16T11:26:20.388Z,2.10
2017-04-16T11:27:26.448Z,1.62
2017-04-16T11:28:32.491Z,1.55
2017-04-16T11:29:38.492Z,1.45
2017-04-16T11:30:44.424Z,0.92
2017-04-16T11:31:50.331Z,1.25
2017-04-16T11:32:56.358Z,1.43
2017-04-16T11:34:02.234Z,1.65
2017-04-16T11:35:09.232Z,2.68
2017-04-16T11:36:15.273Z,1.12
2017-04-16T11:37:21.282Z,0.62
2017-04-16T11:38:28.145Z,1.27
2017-04-16T11:39:34.200Z,2.60
2017-04-16T11:40:40.005Z,1.60
2017-04-16T11:41:45.998Z,1.98
2017-04-16T11:42:51.844Z,1.15
2017-04-16T11:43:57.625Z,1.35
2017-04-16T11:45:03.506Z,1.65
2017-04-16T11:46:09.285Z,0.80
2017-04-16T11:47:15.172Z,0.90
2017-04-16T11:48:21.288Z,1.27
2017-04-16T11:49:27.285Z,1.08
2017-04-16T11:50:33.525Z,1.05
2017-04-16T11:51:39.437Z,1.25
2017-04-16T11:52:45.942Z,1.23
2017-04-16T11:53:51.954Z,1.02
2017-04-16T11:54:58.089Z,1.03
2017-04-16T11:56:04.058Z,1.38
2017-04-16T11:57:10.040Z,1.18
2017-04-16T11:58:15.757Z,0.90
2017-04-16T11:59:21.821Z,0.95
2017-04-16T12:00:27.962Z,1.37
2017-04-16T12:01:33.727Z,1.70
2017-04-16T12:02:39.807Z,11.22
2017-04-16T12:03:46.417Z,1.80
2017-04-16T12:04:53.887Z,1.67
2017-04-16T12:05:59.784Z,0.98
2017-04-16T12:07:05.709Z,2.12
2017-04-16T12:08:11.740Z,1.23
2017-04-16T12:09:17.841Z,1.65
2017-04-16T12:10:23.721Z,1.73
2017-04-16T12:11:29.589Z,1.92
2017-04-16T12:12:35.651Z,2.03
2017-04-16T12:13:42.237Z,2.15
2017-04-16T12:14:48.257Z,2.42
2017-04-16T12:15:53.973Z,3.07
2017-04-16T12:17:00.046Z,2.10
2017-04-16T12:18:05.851Z,1.53
2017-04-16T12:19:11.702Z,4.53
2017-04-16T12:20:17.538Z,2.43
2017-04-16T12:21:23.489Z,2.67
2017-04-16T12:22:29.327Z,2.67
2017-04-16T12:23:35.757Z,2.30
2017-04-16T12:24:41.565Z,2.38
2017-04-16T12:25:47.484Z,6.02
2017-04-16T12:26:53.359Z,3.90
2017-04-16T12:27:59.327Z,3.58
2017-04-16T12:29:05.112Z,2.67
2017-04-16T12:30:11.113Z,2.07
2017-04-16T12:31:17.711Z,2.00
2017-04-16T12:32:23.561Z,5.20
2017-04-16T12:33:34.284Z,2.90
2017-04-16T12:34:40.706Z,2.90
2017-04-16T12:35:46.724Z,2.00
2017-04-16T12:36:52.513Z,2.05
2017-04-16T12:37:59.043Z,1.37
2017-04-16T12:39:05.279Z,2.73
2017-04-16T12:40:11.932Z,1.70
2017-04-16T12:41:17.702Z,1.82
2017-04-16T12:42:23.500Z,2.12
2017-04-16T12:43:29.375Z,2.48
2017-04-16T12:44:35.732Z,2.07
2017-04-16T12:45:41.615Z,2.98
2017-04-16T12:46:47.396Z,1.85
2017-04-16T12:47:53.337Z,1.30
2017-04-16T12:49:02.942Z,6.33
2017-04-16T12:50:09.722Z,2.03
2017-04-16T12:51:15.508Z,2.10
2017-04-16T12:52:21.394Z,1.92
2017-04-16T12:53:27.551Z,1.45
2017-04-16T12:54:33.577Z,1.60
2017-04-16T12:55:39.633Z,2.37
2017-04-16T12:56:45.473Z,2.78
2017-04-16T12:57:51.247Z,4.27
2017-04-16T12:58:56.988Z,1.78
2017-04-16T13:00:02.968Z,1.85
2017-04-16T13:01:08.988Z,1.30
2017-04-16T13:02:14.994Z,1.50
2017-04-16T13:03:21.083Z,1.52
2017-04-16T13:04:27.004Z,1.82
2017-04-16T13:05:32.829Z,1.57
2017-04-16T13:06:38.648Z,2.80
2017-04-16T13:07:44.637Z,2.17
2017-04-16T13:08:50.610Z,4.60
2017-04-16T13:09:56.443Z,1.97
2017-04-16T13:11:02.501Z,3.17
2017-04-16T13:12:08.536Z,1.67
2017-04-16T13:13:14.646Z,2.32
2017-04-16T13:14:20.495Z,2.32
2017-04-16T13:15:26.365Z,2.33
2017-04-16T13:16:32.137Z,2.00
2017-04-16T13:17:38.185Z,1.88
2017-04-16T13:18:44.100Z,1.67
2017-04-16T13:19:50.099Z,5.57
2017-04-16T13:20:55.965Z,20.03
2017-04-16T13:22:01.864Z,3.18
2017-04-16T13:23:08.232Z,6.30
2017-04-16T13:24:14.186Z,5.95
2017-04-16T13:25:19.943Z,3.48
2017-04-16T13:26:25.798Z,4.67
2017-04-16T13:27:31.840Z,3.57
2017-04-16T13:28:38.105Z,3.37
2017-04-16T13:29:44.076Z,3.33
2017-04-16T13:30:50.055Z,1.98
2017-04-16T13:31:55.932Z,3.00
2017-04-16T13:33:01.691Z,1.73
2017-04-16T13:34:09.045Z,1.88
2017-04-16T13:35:15.104Z,1.42
2017-04-16T13:36:20.854Z,1.63
2017-04-16T13:37:26.719Z,1.90
2017-04-16T13:38:32.673Z,2.22
2017-04-16T13:39:38.768Z,2.95
2017-04-16T13:40:44.782Z,2.63
2017-04-16T13:41:50.868Z,2.03
2017-04-16T13:42:57.437Z,1.30
2017-04-16T13:44:04.175Z,1.83
2017-04-16T13:45:10.018Z,2.22
2017-04-16T13:46:15.832Z,1.87
2017-04-16T13:47:21.860Z,1.28
2017-04-16T13:48:27.652Z,3.03
2017-04-16T13:49:33.756Z,1.82
2017-04-16T13:50:39.650Z,1.78
2017-04-16T13:51:45.688Z,2.63
2017-04-16T13:52:51.764Z,1.57
2017-04-16T13:53:57.697Z,2.00
2017-04-16T13:55:04.241Z,1.90
2017-04-16T13:56:10.234Z,1.73
2017-04-16T13:57:16.217Z,2.40
2017-04-16T13:58:22.045Z,2.38
2017-04-16T13:59:27.946Z,2.77
2017-04-16T14:00:33.705Z,2.92
2017-04-16T14:01:39.711Z,2.48
2017-04-16T14:02:45.632Z,3.92
2017-04-16T14:03:51.489Z,2.40
2017-04-16T14:04:57.376Z,1.98
2017-04-16T14:06:03.142Z,2.22
2017-04-16T14:07:09.160Z,2.02
2017-04-16T14:08:15.863Z,1.60
2017-04-16T14:09:22.556Z,2.62
2017-04-16T14:10:28.529Z,2.07
2017-04-16T14:11:34.447Z,1.93
2017-04-16T14:12:40.389Z,2.15
2017-04-16T14:13:46.313Z,1.63
2017-04-16T14:14:52.285Z,1.75
2017-04-16T14:15:58.335Z,2.05
2017-04-16T14:17:04.384Z,1.97
2017-04-16T14:18:10.235Z,2.00
2017-04-16T14:19:16.853Z,1.53
2017-04-16T14:20:23.528Z,2.20
2017-04-16T14:21:29.374Z,1.50
2017-04-16T14:22:35.292Z,1.83
2017-04-16T14:23:41.512Z,2.45
2017-04-16T14:24:47.460Z,2.05
2017-04-16T14:25:53.273Z,2.00
2017-04-16T14:26:59.220Z,2.37
2017-04-16T14:28:05.277Z,1.68
2017-04-16T14:29:11.397Z,1.65
2017-04-16T14:30:17.377Z,1.55
2017-04-16T14:31:23.171Z,2.02
2017-04-16T14:32:29.033Z,2.52
2017-04-16T14:33:35.588Z,2.73
2017-04-16T14:34:41.643Z,4.05
2017-04-16T14:35:47.625Z,2.23
2017-04-16T14:36:53.352Z,2.03
2017-04-16T14:37:59.381Z,1.63
2017-04-16T14:39:05.653Z,1.70
2017-04-16T14:40:12.312Z,3.80
2017-04-16T14:41:18.212Z,3.03
2017-04-16T14:42:24.209Z,2.22
2017-04-16T14:43:30.105Z,2.00
2017-04-16T14:44:36.176Z,2.02
2017-04-16T14:45:42.032Z,1.87
2017-04-16T14:46:48.698Z,1.63
2017-04-16T14:47:54.682Z,1.85
2017-04-16T14:49:00.754Z,2.30
2017-04-16T14:50:06.540Z,2.07
2017-04-16T14:51:13.492Z,2.48
2017-04-16T14:52:19.473Z,3.43
2017-04-16T14:53:25.649Z,3.28
2017-04-16T14:54:31.549Z,3.92
2017-04-16T14:55:37.434Z,2.68
2017-04-16T14:56:43.524Z,2.15